Aérodrome :
LOGIN :

S'inscrire | Disclaimer

   EN    FR    IT 

 










Légende :    VFR   VFR Marginal   IFR   IFR Intensif   IFR Très Intensif
Visi : 
Plafond : 
>= 8 km
>= 3000ft
5 à 8 km
1000 à 3000 ft
1500m à 5 km
500 à 1000 ft
800 à 1500m
200 à 500 ft
< 800m
< 200 ft
Symboles :   Orages  Brouillard  Fortes neiges  Fortes précipitations  Vent > 20 kt
SIGMETs :   Divers  Orages  Givrage  Turbulence  Onde Orograph.  Cendres Volcan.






- Altitude de l'aérodrome : 11 ft
- Code IATA : MJV


LELC - Murcia San Javier

DERNIER METAR :
  • 050700Z 32007KT CAVOK 22/15 Q1012 NOSIG

METARs EXPIRÉS :
  • 050630Z 30005KT 260V330 CAVOK 21/16 Q1012 NOSIG
  • 050600Z 29005KT 260V320 CAVOK 19/17 Q1011 NOSIG
  • 050530Z AUTO 27006KT 9000 NCD 18/18 Q1011
  • 050500Z AUTO 27005KT 9000 NCD 17/17 Q1011
  • 050430Z AUTO 27005KT 9000 NCD 17/17 Q1010
  • 050400Z AUTO 27006KT 9000 NCD 18/17 Q1010

TAF TAF LELC
Valide du 05 à 06h jusqu'au 06 à 06h UTC


050500Z 0506/0606 31009KT CAVOK TX27/0512Z TN18/0604Z
BECMG 0512/0514 23012KT
PROB40
TEMPO 0514/0520 23015G25KT



MET'MAP, la Météo Aéronautique d'un coup d'oeil ! - Copyright ORBIFLY Décembre 2007 - Disclaimer

ORBIFLY MET'MAP TEAM :

Programmation & Développement : Alexandra Zaïnal
Sur une idée originale de : Baudouin d'Aumeries
Assistance à la programmation : Marc-Olivier Méhu
Soutien technique & logistique : Manuel Goepfert

Contact : metmap@orbifly.com




SOURCES & CREDITS :

   NOAA